Time;durP1;ratioP1;P1;durP2;ratioP2;P2;SDS_P1;SDS_P2;PMS_P1;PMS_P2;Temp;Humidity;BMP_temperature;BMP_pressure;BME280_temperature;BME280_humidity;BME280_pressure;Samples;Min_cycle;Max_cycle;Signal;HPM_P1;HPM_P2
2021/12/06 00:01:23;;;;;;;;;;;;;;;2.43;100.00;101233.09;4995221;28;19922;-78
2021/12/06 00:03:48;;;;;;;;;;;;;;;2.42;100.00;101236.47;4995219;28;19922;-79
2021/12/06 00:06:14;;;;;;;;;;;;;;;2.40;100.00;101234.56;4995284;28;19973;-79
2021/12/06 00:08:40;;;;;;;;;;;;;;;2.41;100.00;101237.28;4995672;28;19924;-79
2021/12/06 00:11:10;;;;;;;;;;;;;;;2.44;100.00;101241.78;4994628;28;19925;-79
2021/12/06 00:13:37;;;;;;;;;;;;;;;2.47;100.00;101240.34;4995589;28;19918;-78
2021/12/06 00:16:08;;;;;;;;;;;;;;;2.51;100.00;101238.88;4994737;28;20342;-79
2021/12/06 00:18:35;;;;;;;;;;;;;;;2.57;100.00;101243.63;4995558;28;19945;-78
2021/12/06 00:21:01;;;;;;;;;;;;;;;2.59;100.00;101242.03;4994765;28;19948;-79
2021/12/06 00:23:27;;;;;;;;;;;;;;;2.65;100.00;101246.00;5001207;28;19925;-79
2021/12/06 00:25:53;;;;;;;;;;;;;;;2.65;100.00;101247.69;5014845;28;19913;-79
2021/12/06 00:28:19;;;;;;;;;;;;;;;2.65;100.00;101245.09;5014438;28;19921;-78
2021/12/06 00:30:44;;;;;;;;;;;;;;;2.56;100.00;101250.50;4998139;28;19922;-79
2021/12/06 00:33:10;;;;;;;;;;;;;;;2.56;100.00;101253.09;5013872;28;20460;-78
2021/12/06 00:35:35;;;;;;;;;;;;;;;2.55;100.00;101253.91;5013829;28;19944;-78
2021/12/06 00:38:00;;;;;;;;;;;;;;;2.55;100.00;101256.53;4996335;28;19921;-78
2021/12/06 00:40:37;;;;;;;;;;;;;;;2.51;100.00;101255.38;5013448;28;19917;-79
2021/12/06 00:43:03;;;;;;;;;;;;;;;2.47;100.00;101249.81;5014326;28;19972;-79
2021/12/06 00:45:28;;;;;;;;;;;;;;;2.49;100.00;101243.97;5014076;28;19921;-78
2021/12/06 00:47:56;;;;;;;;;;;;;;;2.46;100.00;101254.13;5014485;28;20016;-78
2021/12/06 00:50:22;;;;;;;;;;;;;;;2.44;100.00;101260.91;5014453;28;19913;-78
2021/12/06 00:52:48;;;;;;;;;;;;;;;2.40;100.00;101266.66;5013645;28;19921;-79
2021/12/06 00:55:14;;;;;;;;;;;;;;;2.46;100.00;101267.13;5013924;28;20416;-79
2021/12/06 00:57:44;;;;;;;;;;;;;;;2.48;100.00;101259.44;5014296;28;19917;-78
2021/12/06 01:00:11;;;;;;;;;;;;;;;2.48;100.00;101268.13;5013665;28;19917;-78
2021/12/06 01:02:38;;;;;;;;;;;;;;;2.44;100.00;101273.91;5013525;28;19948;-79
2021/12/06 01:05:05;;;;;;;;;;;;;;;2.44;100.00;101272.97;5012408;28;19917;-79
2021/12/06 01:07:35;;;;;;;;;;;;;;;2.40;100.00;101274.47;5014041;28;19924;-78
2021/12/06 01:10:01;;;;;;;;;;;;;;;2.41;100.00;101278.88;5013788;28;19917;-78
2021/12/06 01:12:29;;;;;;;;;;;;;;;2.45;100.00;101280.91;5013584;28;19983;-79
2021/12/06 01:14:55;;;;;;;;;;;;;;;2.48;100.00;101288.03;4997829;28;20055;-78
2021/12/06 01:17:23;;;;;;;;;;;;;;;2.52;100.00;101292.69;5013911;28;19983;-79
2021/12/06 01:19:48;;;;;;;;;;;;;;;2.48;100.00;101294.13;5014022;28;20285;-79
2021/12/06 01:22:24;;;;;;;;;;;;;;;2.51;100.00;101294.34;5013128;28;20192;-79
2021/12/06 01:24:58;;;;;;;;;;;;;;;2.52;100.00;101303.09;4997869;28;19944;-79
2021/12/06 01:27:43;;;;;;;;;;;;;;;2.57;100.00;101306.03;4994256;28;19945;-78
2021/12/06 01:33:28;;;;;;;;;;;;;;;2.58;100.00;101313.03;4995269;28;19921;-78
2021/12/06 01:41:16;;;;;;;;;;;;;;;2.63;100.00;101310.00;5034225;28;19924;-79
2021/12/06 01:44:00;;;;;;;;;;;;;;;2.62;100.00;101308.16;5017103;28;19921;-78
2021/12/06 01:46:25;;;;;;;;;;;;;;;2.65;100.00;101312.72;5017130;28;19967;-79
2021/12/06 01:48:52;;;;;;;;;;;;;;;2.58;100.00;101311.34;5000271;28;19960;-79
2021/12/06 01:51:18;;;;;;;;;;;;;;;2.63;100.00;101317.78;5016765;28;19917;-78
2021/12/06 01:53:43;;;;;;;;;;;;;;;2.65;100.00;101321.41;5016745;28;20000;-79
2021/12/06 01:56:09;;;;;;;;;;;;;;;2.68;100.00;101318.13;5016127;28;19964;-79
2021/12/06 01:58:39;;;;;;;;;;;;;;;2.74;100.00;101323.78;4999907;28;19924;-79
2021/12/06 02:01:06;;;;;;;;;;;;;;;2.78;100.00;101320.66;5016824;28;20465;-78
2021/12/06 02:03:32;;;;;;;;;;;;;;;2.79;100.00;101321.53;5016551;28;19913;-78
2021/12/06 02:05:57;;;;;;;;;;;;;;;2.80;100.00;101316.47;5016678;28;19924;-79
2021/12/06 02:08:25;;;;;;;;;;;;;;;2.81;100.00;101313.06;5016578;28;19917;-79
2021/12/06 02:10:53;;;;;;;;;;;;;;;2.80;100.00;101307.75;5016729;28;19920;-78
2021/12/06 02:13:19;;;;;;;;;;;;;;;2.78;100.00;101310.25;5016243;28;19921;-78
2021/12/06 02:15:54;;;;;;;;;;;;;;;2.77;100.00;101312.72;5015980;28;20177;-78
2021/12/06 02:21:09;;;;;;;;;;;;;;;2.72;100.00;101304.59;5033389;28;19924;-78
2021/12/06 02:23:35;;;;;;;;;;;;;;;2.71;100.00;101307.06;5022319;28;19924;-78
2021/12/06 02:26:00;;;;;;;;;;;;;;;2.65;100.00;101302.31;5037543;28;19916;-78
2021/12/06 02:28:26;;;;;;;;;;;;;;;2.63;100.00;101302.19;5040038;28;20348;-78
2021/12/06 02:31:06;;;;;;;;;;;;;;;2.61;100.00;101301.19;5057818;28;19927;-78
2021/12/06 02:33:31;;;;;;;;;;;;;;;2.62;100.00;101305.56;5039743;28;19920;-78
2021/12/06 02:35:56;;;;;;;;;;;;;;;2.61;100.00;101295.06;5039237;28;19916;-78
2021/12/06 02:38:22;;;;;;;;;;;;;;;2.61;100.00;101295.06;5029398;28;19922;-78
2021/12/06 02:40:47;;;;;;;;;;;;;;;2.59;100.00;101288.84;5021948;28;19967;-78
2021/12/06 02:43:13;;;;;;;;;;;;;;;2.56;100.00;101292.09;5016384;28;19913;-78
2021/12/06 02:45:40;;;;;;;;;;;;;;;2.54;100.00;101290.19;5016420;28;19948;-78
2021/12/06 02:48:06;;;;;;;;;;;;;;;2.57;100.00;101290.44;5016576;28;19920;-78
2021/12/06 02:50:34;;;;;;;;;;;;;;;2.58;100.00;101289.63;5016900;28;19917;-79
2021/12/06 02:52:59;;;;;;;;;;;;;;;2.54;100.00;101287.59;5016333;28;19917;-78
2021/12/06 02:55:37;;;;;;;;;;;;;;;2.55;100.00;101292.00;5016350;28;19917;-78
2021/12/06 02:58:17;;;;;;;;;;;;;;;2.54;100.00;101300.59;5015873;28;20405;-77
2021/12/06 03:00:44;;;;;;;;;;;;;;;2.53;100.00;101296.19;5016388;28;20020;-77
2021/12/06 03:03:10;;;;;;;;;;;;;;;2.56;100.00;101296.41;5015803;28;20432;-77
2021/12/06 03:05:36;;;;;;;;;;;;;;;2.55;100.00;101298.13;5016234;28;19952;-78
2021/12/06 03:08:02;;;;;;;;;;;;;;;2.57;100.00;101296.53;5015875;28;19918;-78
2021/12/06 03:10:28;;;;;;;;;;;;;;;2.54;100.00;101293.69;5000043;28;19928;-78
2021/12/06 03:12:53;;;;;;;;;;;;;;;2.53;100.00;101289.28;5015611;28;19917;-78
2021/12/06 03:15:19;;;;;;;;;;;;;;;2.51;100.00;101288.28;5014812;28;19921;-78
2021/12/06 03:17:48;;;;;;;;;;;;;;;2.51;100.00;101296.06;5014484;28;20345;-78
2021/12/06 03:20:15;;;;;;;;;;;;;;;2.51;100.00;101293.47;5012997;28;19917;-78
2021/12/06 03:22:42;;;;;;;;;;;;;;;2.51;100.00;101309.06;5016221;28;20416;-78
2021/12/06 03:25:10;;;;;;;;;;;;;;;2.50;100.00;101304.66;4997154;28;19952;-78
2021/12/06 03:27:37;;;;;;;;;;;;;;;2.54;100.00;101308.41;4996284;28;19917;-78
2021/12/06 03:30:03;;;;;;;;;;;;;;;2.50;100.00;101305.56;4996024;28;19914;-78
2021/12/06 03:32:28;;;;;;;;;;;;;;;2.50;100.00;101304.66;4996022;28;19948;-78
2021/12/06 03:34:54;;;;;;;;;;;;;;;2.47;100.00;101307.00;4995651;28;20398;-78
2021/12/06 03:37:19;;;;;;;;;;;;;;;2.44;100.00;101299.91;4994822;28;19949;-78
2021/12/06 03:39:47;;;;;;;;;;;;;;;2.37;100.00;101300.22;4995177;28;19967;-78
2021/12/06 03:42:13;;;;;;;;;;;;;;;2.34;100.00;101306.06;4996228;28;19918;-78
2021/12/06 03:44:38;;;;;;;;;;;;;;;2.25;100.00;101299.28;4996209;28;19922;-78
2021/12/06 03:47:06;;;;;;;;;;;;;;;2.23;100.00;101295.66;4995386;28;19925;-78
2021/12/06 03:49:31;;;;;;;;;;;;;;;2.14;100.00;101290.66;4995639;28;19918;-78
2021/12/06 03:51:56;;;;;;;;;;;;;;;2.13;100.00;101301.88;4995067;28;19924;-80
2021/12/06 03:54:23;;;;;;;;;;;;;;;2.07;100.00;101304.88;4995922;28;19976;-80
2021/12/06 03:56:49;;;;;;;;;;;;;;;2.00;100.00;101306.88;4979572;28;20016;-79
2021/12/06 03:59:18;;;;;;;;;;;;;;;1.92;100.00;101314.09;4994771;28;19921;-79
2021/12/06 04:01:44;;;;;;;;;;;;;;;1.92;100.00;101309.78;4994909;28;19917;-80
2021/12/06 04:04:10;;;;;;;;;;;;;;;1.92;100.00;101322.75;4995041;28;20008;-80
2021/12/06 04:06:39;;;;;;;;;;;;;;;1.92;100.00;101324.47;4995364;28;19924;-80
2021/12/06 04:09:05;;;;;;;;;;;;;;;1.92;100.00;101334.84;4995147;28;19918;-79
2021/12/06 04:11:32;;;;;;;;;;;;;;;1.92;100.00;101334.84;4997020;28;19917;-77
2021/12/06 04:13:57;;;;;;;;;;;;;;;1.87;100.00;101333.59;4995338;28;19918;-77
2021/12/06 04:16:22;;;;;;;;;;;;;;;1.84;100.00;101325.56;4995667;28;19918;-77
2021/12/06 04:18:52;;;;;;;;;;;;;;;1.74;100.00;101318.72;4995455;28;19945;-77
2021/12/06 04:21:18;;;;;;;;;;;;;;;1.64;100.00;101318.81;4992174;28;19917;-77
2021/12/06 04:23:43;;;;;;;;;;;;;;;1.55;100.00;101318.97;5003984;28;19921;-78
2021/12/06 04:26:09;;;;;;;;;;;;;;;1.47;100.00;101325.25;5014992;28;19968;-77
2021/12/06 04:28:35;;;;;;;;;;;;;;;1.42;100.00;101330.97;5015104;28;19921;-78
2021/12/06 04:31:02;;;;;;;;;;;;;;;1.45;100.00;101332.91;5014653;28;19921;-77
2021/12/06 04:33:27;;;;;;;;;;;;;;;1.47;100.00;101338.22;5014915;28;19925;-77
2021/12/06 04:35:53;;;;;;;;;;;;;;;1.45;100.00;101338.09;5015967;28;19917;-78
2021/12/06 04:38:19;;;;;;;;;;;;;;;1.48;100.00;101338.34;5027217;28;20007;-78
2021/12/06 04:40:44;;;;;;;;;;;;;;;1.38;100.00;101336.72;5037230;28;20023;-78
2021/12/06 04:43:11;;;;;;;;;;;;;;;1.38;100.00;101334.13;5037315;28;20459;-77
2021/12/06 04:45:36;;;;;;;;;;;;;;;1.40;100.00;101342.91;5036849;28;19923;-78
2021/12/06 04:48:04;;;;;;;;;;;;;;;1.39;100.00;101328.13;5037023;28;19995;-78
2021/12/06 04:50:32;;;;;;;;;;;;;;;1.40;100.00;101329.94;5036846;28;19912;-78
2021/12/06 04:53:28;;;;;;;;;;;;;;;1.45;100.00;101332.00;5036887;28;19970;-80
2021/12/06 04:56:16;;;;;;;;;;;;;;;1.52;100.00;101326.50;5033289;28;19917;-79
2021/12/06 04:59:02;;;;;;;;;;;;;;;1.61;100.00;101322.06;5031086;28;19916;-78
2021/12/06 05:01:29;;;;;;;;;;;;;;;1.75;100.00;101315.34;5036946;28;19925;-79
2021/12/06 05:03:57;;;;;;;;;;;;;;;1.82;100.00;101306.34;5036599;28;19923;-79
2021/12/06 05:06:24;;;;;;;;;;;;;;;1.95;100.00;101306.53;5036976;28;20015;-79
2021/12/06 05:08:52;;;;;;;;;;;;;;;1.97;100.00;101307.53;5037119;28;19940;-79
2021/12/06 05:11:20;;;;;;;;;;;;;;;2.00;100.00;101318.16;5036789;28;19917;-79
2021/12/06 05:13:47;;;;;;;;;;;;;;;2.03;100.00;101318.41;5037380;28;19970;-78
2021/12/06 05:16:13;;;;;;;;;;;;;;;2.07;100.00;101320.47;5038739;28;19921;-78
2021/12/06 05:18:38;;;;;;;;;;;;;;;2.12;100.00;101323.44;5038674;28;19916;-78
2021/12/06 05:21:04;;;;;;;;;;;;;;;2.14;100.00;101322.78;5036642;28;19980;-79
2021/12/06 05:23:32;;;;;;;;;;;;;;;2.19;100.00;101330.00;5030473;28;19917;-78
2021/12/06 05:25:58;;;;;;;;;;;;;;;2.19;100.00;101330.00;5015153;28;19960;-79
2021/12/06 05:28:27;;;;;;;;;;;;;;;2.18;100.00;101329.09;5015544;28;19921;-79
2021/12/06 05:30:55;;;;;;;;;;;;;;;2.13;100.00;101331.34;5016912;28;19913;-79
2021/12/06 05:33:29;;;;;;;;;;;;;;;2.16;100.00;101325.50;5016440;28;19944;-78
2021/12/06 05:35:56;;;;;;;;;;;;;;;2.13;100.00;101331.34;5016863;28;19924;-79
2021/12/06 05:38:22;;;;;;;;;;;;;;;2.15;100.00;101334.94;5012272;28;20325;-79
2021/12/06 05:40:47;;;;;;;;;;;;;;;2.17;100.00;101334.19;5013179;28;20349;-79
2021/12/06 05:43:12;;;;;;;;;;;;;;;2.15;100.00;101334.94;5012205;28;19913;-76
2021/12/06 05:45:38;;;;;;;;;;;;;;;2.24;100.00;101345.16;5013011;28;19922;-78
2021/12/06 05:48:05;;;;;;;;;;;;;;;2.29;100.00;101350.72;5012147;28;19913;-78
2021/12/06 05:50:30;;;;;;;;;;;;;;;2.28;100.00;101341.09;5013641;28;19956;-78
2021/12/06 05:52:56;;;;;;;;;;;;;;;2.30;100.00;101349.91;5012925;28;20030;-78
2021/12/06 05:55:23;;;;;;;;;;;;;;;2.26;100.00;101346.19;5013485;28;19917;-78
2021/12/06 05:57:49;;;;;;;;;;;;;;;2.26;100.00;101340.09;4996408;28;20433;-77
2021/12/06 06:00:16;;;;;;;;;;;;;;;2.28;100.00;101339.38;5013591;28;20258;-78
2021/12/06 06:02:41;;;;;;;;;;;;;;;2.34;100.00;101347.66;5017119;28;19952;-77
2021/12/06 06:05:07;;;;;;;;;;;;;;;2.24;100.00;101347.75;5017095;28;20277;-78
2021/12/06 06:07:34;;;;;;;;;;;;;;;2.21;100.00;101344.03;5000250;28;20012;-78
2021/12/06 06:09:59;;;;;;;;;;;;;;;2.20;100.00;101343.09;5019970;28;19943;-78
2021/12/06 06:12:26;;;;;;;;;;;;;;;2.17;100.00;101332.47;5017120;28;20344;-78
2021/12/06 06:14:52;;;;;;;;;;;;;;;2.15;100.00;101337.53;5016475;28;19928;-78
2021/12/06 06:17:19;;;;;;;;;;;;;;;2.17;100.00;101331.56;5016620;28;19944;-77
2021/12/06 06:19:47;;;;;;;;;;;;;;;2.14;100.00;101335.75;5000869;28;19925;-76
2021/12/06 06:22:12;;;;;;;;;;;;;;;2.25;100.00;101343.47;5016402;28;19924;-78
2021/12/06 06:24:38;;;;;;;;;;;;;;;2.21;100.00;101347.53;5001178;28;19921;-77
2021/12/06 06:27:04;;;;;;;;;;;;;;;2.17;100.00;101341.97;4996632;28;19984;-79
2021/12/06 06:29:31;;;;;;;;;;;;;;;2.17;100.00;101337.66;4996943;28;19921;-78
2021/12/06 06:31:59;;;;;;;;;;;;;;;2.13;100.00;101338.25;4981019;28;19921;-79
2021/12/06 06:34:24;;;;;;;;;;;;;;;2.18;100.00;101341.19;4997024;28;19917;-79
2021/12/06 06:36:53;;;;;;;;;;;;;;;2.13;100.00;101344.31;4997062;28;19924;-79
2021/12/06 06:39:21;;;;;;;;;;;;;;;2.11;100.00;101351.09;5008298;28;19932;-79
2021/12/06 06:41:47;;;;;;;;;;;;;;;2.12;100.00;101357.19;5017165;28;19928;-78
2021/12/06 06:44:15;;;;;;;;;;;;;;;2.15;100.00;101366.13;5016179;28;19913;-80
2021/12/06 06:46:40;;;;;;;;;;;;;;;2.14;100.00;101351.34;5023264;28;19959;-81
2021/12/06 06:49:14;;;;;;;;;;;;;;;2.22;100.00;101362.34;5036054;28;19917;-80
2021/12/06 06:51:40;;;;;;;;;;;;;;;2.26;100.00;101363.47;5021034;28;19918;-78
2021/12/06 06:54:06;;;;;;;;;;;;;;;2.33;100.00;101365.75;4999909;28;19925;-79
2021/12/06 06:56:32;;;;;;;;;;;;;;;2.37;100.00;101361.69;5016739;28;20265;-80
2021/12/06 06:58:59;;;;;;;;;;;;;;;2.30;100.00;101360.31;5016088;28;20346;-78
2021/12/06 07:01:24;;;;;;;;;;;;;;;2.33;100.00;101373.53;5015991;28;19917;-79
2021/12/06 07:03:53;;;;;;;;;;;;;;;2.33;100.00;101368.34;5016643;28;19917;-79
2021/12/06 07:06:23;;;;;;;;;;;;;;;2.30;100.00;101363.84;5015135;28;20396;-78
2021/12/06 07:08:48;;;;;;;;;;;;;;;2.28;100.00;101364.47;5015711;28;20025;-81
2021/12/06 07:11:13;;;;;;;;;;;;;;;2.34;100.00;101357.16;5014933;28;20216;-79
2021/12/06 07:13:39;;;;;;;;;;;;;;;2.22;100.00;101364.00;5015470;28;19917;-78
2021/12/06 07:16:07;;;;;;;;;;;;;;;2.28;100.00;101354.09;4998743;28;19968;-78
2021/12/06 07:18:33;;;;;;;;;;;;;;;2.23;100.00;101352.84;5015028;28;19918;-81
2021/12/06 07:20:59;;;;;;;;;;;;;;;2.21;100.00;101344.03;5014558;28;19921;-79
2021/12/06 07:23:24;;;;;;;;;;;;;;;2.13;100.00;101335.63;5014391;28;19940;-79
2021/12/06 07:25:50;;;;;;;;;;;;;;;2.20;100.00;101337.00;5014127;28;19935;-79
2021/12/06 07:28:15;;;;;;;;;;;;;;;2.21;100.00;101338.84;5013661;28;19921;-78
2021/12/06 07:30:40;;;;;;;;;;;;;;;2.19;100.00;101335.19;5014831;28;19968;-80
2021/12/06 07:33:07;;;;;;;;;;;;;;;2.19;100.00;101343.91;5013650;28;20277;-80
2021/12/06 07:35:34;;;;;;;;;;;;;;;2.18;100.00;101334.28;5013855;28;19917;-79
2021/12/06 07:38:00;;;;;;;;;;;;;;;2.15;100.00;101324.56;5014158;28;20252;-78
2021/12/06 07:40:27;;;;;;;;;;;;;;;2.18;100.00;101323.91;5018065;28;19963;-80
2021/12/06 07:42:52;;;;;;;;;;;;;;;2.24;100.00;101320.88;5035775;28;19917;-79
2021/12/06 07:45:18;;;;;;;;;;;;;;;2.29;100.00;101325.63;5017673;28;19924;-79
2021/12/06 07:47:48;;;;;;;;;;;;;;;2.25;100.00;101317.47;5017342;28;20300;-80
2021/12/06 07:50:15;;;;;;;;;;;;;;;2.22;100.00;101325.03;5017584;28;19913;-81
2021/12/06 07:52:41;;;;;;;;;;;;;;;2.25;100.00;101325.28;5018592;28;20261;-80
2021/12/06 07:55:07;;;;;;;;;;;;;;;2.28;100.00;101341.09;5021864;28;20020;-81
2021/12/06 07:57:35;;;;;;;;;;;;;;;2.22;100.00;101330.22;5017938;28;19967;-79
2021/12/06 08:00:01;;;;;;;;;;;;;;;2.27;100.00;101335.00;5017268;28;19917;-79
2021/12/06 08:02:27;;;;;;;;;;;;;;;2.29;100.00;101332.53;5017706;28;19916;-80
2021/12/06 08:05:29;;;;;;;;;;;;;;;2.29;100.00;101325.63;5017628;28;19999;-79
2021/12/06 08:07:44;;;;;;;;;;;;;;;2.34;100.00;101329.47;5034365;28;19924;-81
2021/12/06 08:10:09;;;;;;;;;;;;;;;2.33;100.00;101331.94;5034283;28;19928;-80
2021/12/06 08:12:34;;;;;;;;;;;;;;;2.39;100.00;101328.94;5020386;28;19925;-79
2021/12/06 08:15:00;;;;;;;;;;;;;;;2.40;100.00;101329.03;5027434;28;19951;-78
2021/12/06 08:17:27;;;;;;;;;;;;;;;2.39;100.00;101329.81;5034521;28;19917;-80
2021/12/06 08:19:52;;;;;;;;;;;;;;;2.44;100.00;101338.91;5034008;28;19913;-79
2021/12/06 08:22:17;;;;;;;;;;;;;;;2.45;100.00;101343.28;5001215;28;19970;-79
2021/12/06 08:24:43;;;;;;;;;;;;;;;2.41;100.00;101349.06;5034989;28;19913;-80
2021/12/06 08:27:08;;;;;;;;;;;;;;;2.41;100.00;101356.84;5017982;28;19917;-79
2021/12/06 08:29:34;;;;;;;;;;;;;;;2.43;100.00;101350.06;5017707;28;20277;-78
2021/12/06 08:31:59;;;;;;;;;;;;;;;2.48;100.00;101361.72;5004520;28;19944;-80
2021/12/06 08:34:24;;;;;;;;;;;;;;;2.53;100.00;101358.56;5037389;28;19920;-80
2021/12/06 08:36:50;;;;;;;;;;;;;;;2.56;100.00;101359.72;5037658;28;19917;-80
2021/12/06 08:39:15;;;;;;;;;;;;;;;2.56;100.00;101358.81;5019894;28;19920;-80
2021/12/06 08:41:49;;;;;;;;;;;;;;;2.61;100.00;101354.84;5017888;28;20004;-79
2021/12/06 08:44:16;;;;;;;;;;;;;;;2.57;100.00;101348.53;5017598;28;20008;-79
2021/12/06 08:46:41;;;;;;;;;;;;;;;2.60;100.00;101348.75;5019794;28;19917;-80
2021/12/06 08:49:09;;;;;;;;;;;;;;;2.68;100.00;101345.03;5035616;28;19936;-80
2021/12/06 08:51:36;;;;;;;;;;;;;;;2.68;100.00;101349.34;5017784;28;19917;-80
2021/12/06 08:54:04;;;;;;;;;;;;;;;2.66;100.00;101345.72;5017445;28;19956;-80
2021/12/06 08:56:31;;;;;;;;;;;;;;;2.73;100.00;101337.59;5017720;28;19917;-80
2021/12/06 08:58:58;;;;;;;;;;;;;;;2.76;100.00;101344.72;5016963;28;20011;-80
2021/12/06 09:01:24;;;;;;;;;;;;;;;2.76;100.00;101348.22;5018055;28;20000;-80
2021/12/06 09:03:50;;;;;;;;;;;;;;;2.73;100.00;101347.09;5017241;28;19948;-80
2021/12/06 09:06:17;;;;;;;;;;;;;;;2.73;100.00;101340.19;5016124;28;19917;-80
2021/12/06 09:08:43;;;;;;;;;;;;;;;2.76;100.00;101343.00;5016656;28;20403;-80
2021/12/06 09:11:09;;;;;;;;;;;;;;;2.77;100.00;101344.84;5025887;28;19925;-80
2021/12/06 09:13:36;;;;;;;;;;;;;;;2.64;100.00;101334.28;5037676;28;19978;-81
2021/12/06 09:16:04;;;;;;;;;;;;;;;2.72;100.00;101335.78;5020572;28;19921;-81
2021/12/06 09:18:38;;;;;;;;;;;;;;;2.72;100.00;101334.88;5036829;28;20355;-79
2021/12/06 09:21:05;;;;;;;;;;;;;;;2.67;100.00;101332.84;5017308;28;19920;-79
2021/12/06 09:23:30;;;;;;;;;;;;;;;2.77;100.00;101323.13;5023918;28;19948;-80
2021/12/06 09:25:57;;;;;;;;;;;;;;;2.80;100.00;101316.47;5034784;28;19997;-80
2021/12/06 09:28:25;;;;;;;;;;;;;;;2.81;100.00;101323.47;5016431;28;19921;-79
2021/12/06 09:30:50;;;;;;;;;;;;;;;2.95;100.00;101320.97;5015886;28;19913;-78
2021/12/06 09:33:16;;;;;;;;;;;;;;;2.97;100.00;101314.22;5015131;28;19917;-80
2021/12/06 09:35:44;;;;;;;;;;;;;;;3.03;100.00;101320.75;5033616;28;19917;-80
2021/12/06 09:38:11;;;;;;;;;;;;;;;3.03;100.00;101335.44;5015815;28;19925;-80
2021/12/06 09:40:39;;;;;;;;;;;;;;;3.00;100.00;101338.75;5015527;28;19967;-80
2021/12/06 09:43:06;;;;;;;;;;;;;;;3.02;100.00;101344.97;5015501;28;19925;-80
2021/12/06 09:45:32;;;;;;;;;;;;;;;3.06;100.00;101340.88;5015302;28;19917;-79
2021/12/06 09:47:59;;;;;;;;;;;;;;;2.96;100.00;101346.22;5014713;28;20422;-79
2021/12/06 09:50:27;;;;;;;;;;;;;;;2.88;100.00;101330.94;5033777;28;19923;-78
2021/12/06 09:52:54;;;;;;;;;;;;;;;2.93;100.00;101330.38;4999596;28;19955;-80
2021/12/06 09:55:20;;;;;;;;;;;;;;;2.86;100.00;101329.91;5016062;28;19983;-80
2021/12/06 09:57:46;;;;;;;;;;;;;;;2.92;100.00;101323.34;5015441;28;20012;-79
2021/12/06 10:00:12;;;;;;;;;;;;;;;2.84;100.00;101323.72;5017157;28;19956;-80
2021/12/06 10:02:39;;;;;;;;;;;;;;;2.88;100.00;101312.72;5017137;28;19917;-80
2021/12/06 10:05:05;;;;;;;;;;;;;;;2.94;100.00;101314.00;5015811;28;19921;-79
2021/12/06 10:07:31;;;;;;;;;;;;;;;3.05;100.00;101313.06;5017356;28;20003;-81
2021/12/06 10:09:58;;;;;;;;;;;;;;;3.03;100.00;101306.81;5019262;28;20319;-81
2021/12/06 10:12:24;;;;;;;;;;;;;;;3.09;100.00;101301.19;5003819;28;19921;-81
2021/12/06 10:14:50;;;;;;;;;;;;;;;3.10;100.00;101297.78;5018835;28;19917;-81
2021/12/06 10:17:16;;;;;;;;;;;;;;;3.12;100.00;101291.88;5020751;28;19943;-79
2021/12/06 10:19:43;;;;;;;;;;;;;;;3.09;100.00;101288.16;5016745;28;19917;-80
2021/12/06 10:22:08;;;;;;;;;;;;;;;2.96;100.00;101278.56;5015548;28;20355;-80
2021/12/06 10:24:34;;;;;;;;;;;;;;;2.88;100.00;101271.09;5016430;28;19917;-81
2021/12/06 10:27:08;;;;;;;;;;;;;;;2.91;100.00;101269.53;5018061;28;19917;-80
2021/12/06 10:29:44;;;;;;;;;;;;;;;2.92;100.00;101259.25;5000435;28;20349;-80
2021/12/06 10:32:25;;;;;;;;;;;;;;;3.11;100.00;101253.66;5017650;28;19963;-81
2021/12/06 10:34:56;;;;;;;;;;;;;;;3.00;100.00;101252.00;5017899;28;19917;-82
2021/12/06 10:37:30;;;;;;;;;;;;;;;2.97;100.00;101239.66;5017954;28;19921;-81
2021/12/06 10:39:56;;;;;;;;;;;;;;;2.96;100.00;101242.16;5015556;28;19917;-81
2021/12/06 10:42:32;;;;;;;;;;;;;;;3.01;100.00;101243.38;5015112;28;19927;-81
2021/12/06 10:45:07;;;;;;;;;;;;;;;2.94;100.00;101233.34;5015252;28;19917;-81
2021/12/06 10:47:33;;;;;;;;;;;;;;;3.00;100.00;101233.78;5017043;28;19924;-81
2021/12/06 10:50:25;;;;;;;;;;;;;;;3.13;100.00;101236.47;5036123;28;19921;-79
2021/12/06 10:52:59;;;;;;;;;;;;;;;3.00;100.00;101233.78;5018094;28;20036;-81
2021/12/06 10:55:27;;;;;;;;;;;;;;;2.84;100.00;101227.47;5019886;28;19917;-81
2021/12/06 10:58:00;;;;;;;;;;;;;;;2.94;100.00;101233.34;5019539;28;19916;-81
2021/12/06 11:00:27;;;;;;;;;;;;;;;2.97;100.00;101237.06;5020339;28;19921;-80
2021/12/06 11:02:53;;;;;;;;;;;;;;;3.05;100.00;101248.03;5019520;28;19917;-79
2021/12/06 11:05:23;;;;;;;;;;;;;;;2.97;100.00;101250.06;5019509;28;19993;-81
2021/12/06 11:07:55;;;;;;;;;;;;;;;2.94;100.00;101256.75;5019101;28;20357;-80
2021/12/06 11:10:24;;;;;;;;;;;;;;;3.02;100.00;101260.81;5017803;28;19918;-80
2021/12/06 11:13:11;;;;;;;;;;;;;;;3.00;100.00;101252.00;5019554;28;19943;-81
2021/12/06 11:15:50;;;;;;;;;;;;;;;3.04;100.00;101260.09;5015679;28;20530;-80
2021/12/06 11:18:28;;;;;;;;;;;;;;;3.10;100.00;101263.97;5018876;28;20342;-82
2021/12/06 11:20:54;;;;;;;;;;;;;;;3.13;100.00;101261.59;5019398;28;19920;-81
2021/12/06 11:23:19;;;;;;;;;;;;;;;3.22;100.00;101270.97;5020175;28;19924;-81
2021/12/06 11:25:54;;;;;;;;;;;;;;;3.30;100.00;101276.72;5019137;28;19913;-81
2021/12/06 11:28:27;;;;;;;;;;;;;;;2.96;100.00;101258.66;5019093;28;19923;-81
2021/12/06 11:30:56;;;;;;;;;;;;;;;3.06;100.00;101268.03;5019327;28;20597;-82
2021/12/06 11:33:26;;;;;;;;;;;;;;;3.21;100.00;101268.25;5019277;28;19921;-81
2021/12/06 11:35:51;;;;;;;;;;;;;;;3.18;100.00;101258.50;5019015;28;20350;-81
2021/12/06 11:38:18;;;;;;;;;;;;;;;3.04;100.00;101260.09;5018183;28;19924;-79
2021/12/06 11:40:43;;;;;;;;;;;;;;;3.02;100.00;101256.50;5002789;28;20353;-81
2021/12/06 11:43:10;;;;;;;;;;;;;;;3.15;100.00;101266.09;5015888;28;19959;-81
2021/12/06 11:45:49;;;;;;;;;;;;;;;3.24;100.00;101261.56;5018901;28;20370;-81
2021/12/06 11:48:17;;;;;;;;;;;;;;;3.40;100.00;101263.56;5019108;28;20688;-81
2021/12/06 11:50:44;;;;;;;;;;;;;;;3.49;100.00;101254.59;5018570;28;20007;-82
2021/12/06 11:53:09;;;;;;;;;;;;;;;3.29;100.00;101267.09;5018357;28;19921;-81
2021/12/06 11:55:36;;;;;;;;;;;;;;;3.39;100.00;101258.25;5016664;28;19964;-81
2021/12/06 11:58:03;;;;;;;;;;;;;;;3.33;100.00;101257.81;5027300;28;20035;-82
2021/12/06 12:00:29;;;;;;;;;;;;;;;3.23;100.00;101259.75;5036530;28;20007;-82
2021/12/06 12:02:56;;;;;;;;;;;;;;;3.15;100.00;101244.38;5028882;28;20015;-78
2021/12/06 12:05:25;;;;;;;;;;;;;;;3.14;100.00;101245.16;5038148;28;19924;-81
2021/12/06 12:07:57;;;;;;;;;;;;;;;3.08;100.00;101237.84;5037118;28;19917;-81
2021/12/06 12:10:28;;;;;;;;;;;;;;;3.10;100.00;101240.56;5037047;28;19927;-81
2021/12/06 12:12:53;;;;;;;;;;;;;;;3.17;100.00;101232.38;5038201;28;20349;-80
2021/12/06 12:15:19;;;;;;;;;;;;;;;3.04;100.00;101233.19;5033879;28;19928;-79
2021/12/06 12:17:49;;;;;;;;;;;;;;;3.06;100.00;101244.59;5037790;28;19912;-80
2021/12/06 12:20:15;;;;;;;;;;;;;;;3.17;100.00;101240.19;5036627;28;19991;-80
2021/12/06 12:22:43;;;;;;;;;;;;;;;3.18;100.00;101234.19;5036509;28;20378;-81
2021/12/06 12:25:10;;;;;;;;;;;;;;;3.17;100.00;101232.38;5036648;28;19920;-81
2021/12/06 12:27:45;;;;;;;;;;;;;;;3.22;100.00;101228.41;5035819;28;20690;-80
2021/12/06 12:30:10;;;;;;;;;;;;;;;3.27;100.00;101223.53;5036169;28;19951;-81
2021/12/06 12:32:36;;;;;;;;;;;;;;;3.15;100.00;101218.34;5036160;28;20010;-80
2021/12/06 12:35:09;;;;;;;;;;;;;;;3.14;100.00;101211.34;5035576;28;19916;-80
2021/12/06 12:37:36;;;;;;;;;;;;;;;3.08;100.00;101214.41;5036349;28;20271;-81
2021/12/06 12:40:07;;;;;;;;;;;;;;;3.12;100.00;101187.78;5036224;28;19917;-81
2021/12/06 12:42:33;;;;;;;;;;;;;;;3.07;100.00;101189.19;5036015;28;19917;-81
2021/12/06 12:45:00;;;;;;;;;;;;;;;3.24;100.00;101182.56;5036637;28;19927;-80
2021/12/06 12:47:27;;;;;;;;;;;;;;;3.15;100.00;101180.22;5036597;28;19921;-81
2021/12/06 12:49:54;;;;;;;;;;;;;;;3.03;100.00;101175.06;5036293;28;20012;-81